AirNav   Pilot Hours Calculator
 
 1477 users online  

3OR9 Murphy Ranch Airport
Juntura, Oregon, USA

GOING TO JUNTURA?


FAA INFORMATION EFFECTIVE 25 MARCH 2021

Location

FAA Identifier: 3OR9
Lat/Long: 43-57-26.5690N 118-07-56.7000W
43-57.442817N 118-07.945000W
43.9573803,-118.1324167
(estimated)
Elevation: 3465 ft. / 1056 m (estimated)
Variation: 17E (1990)
From city: 15 miles N of JUNTURA, OR
Time zone: UTC -7 (UTC -8 during Standard Time)
Zip code: 97911

Airport Operations

Airport use: Private use. Permission required prior to landing
Activation date: 10/1992
Control tower: no
ARTCC: SALT LAKE CITY CENTER
FSS: MC MINNVILLE FLIGHT SERVICE STATION
Attendance: UNATNDD
Wind indicator: yes
Segmented circle: no

Airport Services

Runway Information

Runway 3/21

Dimensions: 1950 x 60 ft. / 594 x 18 m
Surface: gravel, in good condition
RUNWAY 3  RUNWAY 21
Traffic pattern: leftleft
Obstructions: 400 ft. hill, 1600 ft. from runway50 ft. plines, 100 ft. from runway

Airport Ownership and Management from official FAA records

Ownership: Privately-owned
Owner: WILLIAM J. BUTLER II
3641 BENDIRE ROAD
JUNTURA, OR 97911
Phone 541-277-3241
Manager: WILLIAM J. BUTLER II
3641BENDIRE ROAD
JUNTURA, OR 97911
Phone 541-277-3241

Airport Operational Statistics

Aircraft based on the field: 1
Single engine airplanes: 1
    

Additional Remarks

RY 03/21 UNEVEN - DIP IN MIDDLE; NE END SLOPES DOWN; AND SW END SLOPES UP.
FOR CD CTC SALT LAKE ARTCC AT 801-320-2568.

Instrument Procedures

There are no published instrument procedures at 3OR9.

Some nearby airports with instrument procedures:

KBNO - Burns Municipal Airport (42 nm SW)
KGCD - Grant County Regional Airport/Ogilvie Field (45 nm NW)
KONO - Ontario Municipal Airport (48 nm E)
S87 - Weiser Municipal Airport (53 nm E)
KBKE - Baker City Municipal Airport (55 nm N)
 
Loc | Ops | Rwys | IFR | FBO | Links
Com | Nav | Svcs | Stats | Notes
Area around 3OR9 (Murphy Ranch Airport)
 
Road maps at: MapQuest Bing Google
 
Aerial photo
WARNING: Photo may not be current or correct
Aerial photo of 3OR9 (Murphy Ranch Airport)
Do you have a better or more recent aerial photo of Murphy Ranch Airport that you would like to share? If so, please send us your photo.

 
Sectional chart

 
Airport distance calculator
Flying to Murphy Ranch Airport? Find the distance to fly.

From to 3OR9

Sunrise and sunset
Times for 16-Apr-2021
 Local
(UTC-7)
 Zulu
(UTC)
Morning civil twilight05:3812:38
Sunrise06:0913:09
Sunset19:3602:36
Evening civil twilight20:0603:06

Current date and time
Zulu (UTC)  16-Apr-2021 20:18:41
Local (UTC-7)  16-Apr-2021 13:18:41
 
METAR
KBNO 
41nm SW 
161953Z AUTO 06015G22KT 10SM CLR 16/M11 A3017 RMK AO2 PK WND 05026/1922 SLP208 T01561106
KGCD 
45nm NW 
161955Z AUTO 10007G14KT 10SM CLR 16/M09 A3018 RMK AO2 T01641089
KONO 
48nm E 
161953Z AUTO 10004KT 10SM CLR 18/M06 A3019 RMK AO2 SLP220 T01781061
TAF
KBNO 
41nm SW 
161720Z 1618/1718 07015G25KT P6SM SKC FM170300 VRB03KT P6SM SKC
NOTAMs
Click for the latest NOTAMs
NOTAMs are issued by the DoD/FAA and will open in a separate window not controlled by AirNav.

 

 
 

Would you like to see your business listed on this page?

 If your business provides an interesting product or service to pilots, flight crews, aircraft, or users of the Murphy Ranch Airport, you should consider listing it here.  To start the listing process, click on the button below
 
Add a business
 

Other Pages about Murphy Ranch Airport

Update a link
 
Copyright © AirNav, LLC. All rights reserved. Privacy Policy  Contact